createdAt,value
2023-05-06T00:02:17.363Z,50.71
2023-05-06T00:04:44.336Z,50.73
2023-05-06T00:07:11.739Z,50.82
2023-05-06T00:09:38.240Z,50.70
2023-05-06T00:12:05.595Z,50.81
2023-05-06T00:14:32.312Z,50.77
2023-05-06T00:16:59.096Z,50.86
2023-05-06T00:19:25.734Z,50.79
2023-05-06T00:21:52.238Z,50.80
2023-05-06T00:24:18.852Z,50.78
2023-05-06T00:26:45.658Z,50.86
2023-05-06T00:29:12.175Z,50.85
2023-05-06T00:31:38.735Z,50.86
2023-05-06T00:34:05.302Z,50.90
2023-05-06T00:36:32.295Z,50.81
2023-05-06T00:38:58.805Z,50.87
2023-05-06T00:41:25.509Z,50.83
2023-05-06T00:43:52.491Z,50.78
2023-05-06T00:46:19.066Z,50.75
2023-05-06T00:48:45.754Z,50.79
2023-05-06T00:51:12.848Z,50.88
2023-05-06T00:53:40.389Z,50.86
2023-05-06T00:56:07.761Z,50.93
2023-05-06T00:58:35.014Z,50.88
2023-05-06T01:01:02.189Z,50.86
2023-05-06T01:03:28.979Z,50.98
2023-05-06T01:06:01.630Z,50.83
2023-05-06T01:08:49.589Z,50.94
2023-05-06T01:11:28.052Z,51.03
2023-05-06T01:14:01.477Z,51.04
2023-05-06T01:16:30.856Z,50.92
2023-05-06T01:19:00.516Z,51.06
2023-05-06T01:21:34.665Z,51.07
2023-05-06T01:24:01.656Z,50.96
2023-05-06T01:26:28.212Z,51.00
2023-05-06T01:28:55.181Z,51.08
2023-05-06T01:31:29.980Z,51.10
2023-05-06T01:34:18.214Z,51.01
2023-05-06T01:36:58.652Z,51.09
2023-05-06T01:39:29.901Z,51.31
2023-05-06T01:41:59.853Z,51.22
2023-05-06T01:44:29.242Z,51.21
2023-05-06T01:46:56.362Z,51.19
2023-05-06T01:49:25.092Z,51.07
2023-05-06T01:51:52.720Z,51.11
2023-05-06T01:54:19.602Z,51.05
2023-05-06T01:56:46.571Z,51.16
2023-05-06T01:59:14.647Z,51.23
2023-05-06T02:01:41.224Z,51.08
2023-05-06T02:04:07.836Z,51.23
2023-05-06T02:06:34.405Z,51.21
2023-05-06T02:09:01.171Z,51.39
2023-05-06T02:11:29.176Z,51.33
2023-05-06T02:14:02.088Z,51.36
2023-05-06T02:16:55.392Z,51.45
2023-05-06T02:19:22.020Z,51.52
2023-05-06T02:21:48.575Z,51.59
2023-05-06T02:24:15.083Z,51.59
2023-05-06T02:26:41.602Z,51.65
2023-05-06T02:29:08.137Z,51.61
2023-05-06T02:31:34.815Z,51.56
2023-05-06T02:34:01.490Z,51.70
2023-05-06T02:36:29.065Z,51.66
2023-05-06T02:38:56.004Z,51.85
2023-05-06T02:41:22.553Z,51.83
2023-05-06T02:43:49.809Z,51.96
2023-05-06T02:46:16.404Z,51.88
2023-05-06T02:48:43.085Z,52.03
2023-05-06T02:51:09.695Z,51.97
2023-05-06T02:53:36.286Z,51.96
2023-05-06T02:56:02.826Z,52.18
2023-05-06T02:58:29.359Z,52.23
2023-05-06T03:00:56.038Z,52.17
2023-05-06T03:03:22.918Z,52.14
2023-05-06T03:05:49.467Z,52.39
2023-05-06T03:08:16.217Z,52.36
2023-05-06T03:10:43.004Z,52.38
2023-05-06T03:13:09.673Z,52.53
2023-05-06T03:15:36.693Z,52.47
2023-05-06T03:18:03.701Z,52.42
2023-05-06T03:20:30.664Z,52.50
2023-05-06T03:22:57.621Z,52.51
2023-05-06T03:25:24.498Z,52.60
2023-05-06T03:27:51.298Z,52.73
2023-05-06T03:30:20.000Z,52.73
2023-05-06T03:32:48.013Z,52.59
2023-05-06T03:35:18.683Z,52.76
2023-05-06T03:37:47.852Z,52.76
2023-05-06T03:40:17.669Z,52.82
2023-05-06T03:42:45.311Z,52.74
2023-05-06T03:45:12.659Z,52.77
2023-05-06T03:47:39.575Z,52.74
2023-05-06T03:50:07.446Z,52.85
2023-05-06T03:52:34.811Z,52.82
2023-05-06T03:55:01.618Z,52.85
2023-05-06T03:57:29.214Z,52.88
2023-05-06T03:59:56.085Z,53.03
2023-05-06T04:02:23.850Z,52.88
2023-05-06T04:04:51.336Z,52.92
2023-05-06T04:07:17.891Z,52.92
2023-05-06T04:09:44.450Z,52.89
2023-05-06T04:12:11.112Z,52.92
2023-05-06T04:14:39.672Z,52.98
2023-05-06T04:17:07.692Z,52.86
2023-05-06T04:19:37.489Z,52.96
2023-05-06T04:22:04.053Z,52.81
2023-05-06T04:24:31.284Z,52.83
2023-05-06T04:26:58.708Z,52.80
2023-05-06T04:29:27.129Z,52.84
2023-05-06T04:31:57.930Z,52.76
2023-05-06T04:34:27.821Z,52.72
2023-05-06T04:36:54.803Z,52.78
2023-05-06T04:39:32.092Z,52.81
2023-05-06T04:41:58.910Z,52.73
2023-05-06T04:44:33.959Z,52.78
2023-05-06T04:47:01.059Z,52.81
2023-05-06T04:49:28.421Z,52.70
2023-05-06T04:51:55.447Z,52.75
2023-05-06T04:54:21.986Z,52.83
2023-05-06T04:56:48.686Z,52.83
2023-05-06T04:59:15.551Z,52.72
2023-05-06T05:01:42.590Z,52.73
2023-05-06T05:04:10.243Z,52.78
2023-05-06T05:06:36.831Z,52.82
2023-05-06T05:09:04.072Z,52.90
2023-05-06T05:11:31.253Z,52.83
2023-05-06T05:13:59.587Z,52.86
2023-05-06T05:16:28.556Z,52.74
2023-05-06T05:18:56.196Z,52.85
2023-05-06T05:21:26.500Z,52.83
2023-05-06T05:23:54.353Z,52.77
2023-05-06T05:26:21.021Z,52.74
2023-05-06T05:28:47.948Z,52.80
2023-05-06T05:31:14.641Z,52.75
2023-05-06T05:33:41.334Z,52.71
2023-05-06T05:36:12.428Z,52.67
2023-05-06T05:38:39.081Z,52.66
2023-05-06T05:41:06.441Z,52.72
2023-05-06T05:43:33.522Z,52.60
2023-05-06T05:46:01.049Z,52.58
2023-05-06T05:48:31.069Z,52.57
2023-05-06T05:50:58.176Z,52.51
2023-05-06T05:53:25.178Z,52.55
2023-05-06T05:55:51.828Z,52.57
2023-05-06T05:58:18.663Z,52.43
2023-05-06T06:00:45.784Z,52.37
2023-05-06T06:03:13.073Z,52.45
2023-05-06T06:05:40.146Z,52.34
2023-05-06T06:08:06.921Z,52.16
2023-05-06T06:10:36.015Z,52.23
2023-05-06T06:13:06.184Z,52.18
2023-05-06T06:15:33.090Z,52.13
2023-05-06T06:17:59.754Z,52.18
2023-05-06T06:20:27.080Z,52.11
2023-05-06T06:22:54.056Z,52.06
2023-05-06T06:25:21.583Z,52.07
2023-05-06T06:27:48.223Z,51.95
2023-05-06T06:30:14.987Z,51.87
2023-05-06T06:32:50.094Z,51.90
2023-05-06T06:35:17.388Z,51.72
2023-05-06T06:37:44.056Z,51.63
2023-05-06T06:40:11.386Z,51.61
2023-05-06T06:42:38.016Z,51.52
2023-05-06T06:45:18.650Z,51.54
2023-05-06T06:47:45.840Z,51.34
2023-05-06T06:50:12.734Z,51.36
2023-05-06T06:52:39.289Z,51.30
2023-05-06T06:55:06.438Z,51.06
2023-05-06T06:57:32.970Z,50.96
2023-05-06T06:59:59.716Z,50.77
2023-05-06T07:02:26.480Z,50.55
2023-05-06T07:04:54.027Z,50.43
2023-05-06T07:07:20.857Z,50.24
2023-05-06T07:09:47.402Z,50.08
2023-05-06T07:12:14.106Z,50.00
2023-05-06T07:14:41.443Z,49.68
2023-05-06T07:17:08.069Z,49.72
2023-05-06T07:19:34.555Z,49.61
2023-05-06T07:22:02.922Z,49.16
2023-05-06T07:24:29.742Z,49.15
2023-05-06T07:26:56.728Z,49.18
2023-05-06T07:29:23.484Z,49.09
2023-05-06T07:31:53.003Z,48.66
2023-05-06T07:34:19.885Z,48.57
2023-05-06T07:36:46.425Z,48.59
2023-05-06T07:39:14.914Z,48.43
2023-05-06T07:41:41.605Z,48.53
2023-05-06T07:44:08.123Z,48.21
2023-05-06T07:46:35.266Z,48.03
2023-05-06T07:49:02.005Z,47.98
2023-05-06T07:51:28.674Z,47.85
2023-05-06T07:53:55.255Z,47.45
2023-05-06T07:56:21.786Z,47.20
2023-05-06T07:58:49.385Z,47.15
2023-05-06T08:01:16.412Z,46.93
2023-05-06T08:03:44.001Z,47.01
2023-05-06T08:06:10.908Z,46.76
2023-05-06T08:08:37.545Z,46.59
2023-05-06T08:11:04.450Z,46.49
2023-05-06T08:13:33.420Z,46.45
2023-05-06T08:16:02.376Z,46.50
2023-05-06T08:18:30.138Z,46.51
2023-05-06T08:20:56.920Z,46.28
2023-05-06T08:23:23.720Z,46.13
2023-05-06T08:25:50.590Z,46.12
2023-05-06T08:28:17.184Z,46.00
2023-05-06T08:30:47.637Z,45.81
2023-05-06T08:33:14.481Z,45.69
2023-05-06T08:35:41.067Z,45.68
2023-05-06T08:38:07.674Z,45.56
2023-05-06T08:40:34.825Z,45.43
2023-05-06T08:43:03.997Z,45.20
2023-05-06T08:45:30.715Z,44.88
2023-05-06T08:47:57.390Z,44.84
2023-05-06T08:50:25.793Z,44.73
2023-05-06T08:52:52.653Z,44.53
2023-05-06T08:55:19.647Z,44.47
2023-05-06T08:57:48.037Z,44.42
2023-05-06T09:00:15.267Z,44.34
2023-05-06T09:02:43.452Z,44.44
2023-05-06T09:05:12.395Z,44.49
2023-05-06T09:07:39.352Z,44.31
2023-05-06T09:10:08.035Z,44.25
2023-05-06T09:12:38.055Z,44.25
2023-05-06T09:15:05.435Z,44.17
2023-05-06T09:17:33.155Z,44.14
2023-05-06T09:19:59.917Z,44.09
2023-05-06T09:22:28.991Z,43.87
2023-05-06T09:24:57.410Z,43.78
2023-05-06T09:27:33.031Z,43.78
2023-05-06T09:30:01.123Z,43.70
2023-05-06T09:32:28.923Z,43.65
2023-05-06T09:34:56.325Z,43.53
2023-05-06T09:37:24.457Z,43.50
2023-05-06T09:39:54.821Z,43.57
2023-05-06T09:42:23.688Z,43.76
2023-05-06T09:44:52.138Z,43.79
2023-05-06T09:47:18.948Z,43.89
2023-05-06T09:49:46.012Z,43.65
2023-05-06T09:52:13.586Z,43.44
2023-05-06T09:54:41.358Z,43.30
2023-05-06T09:57:09.876Z,43.41
2023-05-06T09:59:36.700Z,43.39
2023-05-06T10:02:04.765Z,43.21
2023-05-06T10:04:36.218Z,43.12
2023-05-06T10:07:04.077Z,43.02
2023-05-06T10:09:31.345Z,42.72
2023-05-06T10:11:59.157Z,42.89
2023-05-06T10:14:25.835Z,42.89
2023-05-06T10:16:53.972Z,42.89
2023-05-06T10:19:26.839Z,42.72
2023-05-06T10:22:07.507Z,42.42
2023-05-06T10:24:46.272Z,42.66
2023-05-06T10:27:14.087Z,42.64
2023-05-06T10:29:43.111Z,42.65
2023-05-06T10:32:11.575Z,42.59
2023-05-06T10:34:48.241Z,42.51
2023-05-06T10:37:15.979Z,42.32
2023-05-06T10:39:43.665Z,42.12
2023-05-06T10:42:11.374Z,42.29
2023-05-06T10:44:58.380Z,42.32
2023-05-06T10:47:25.822Z,42.20
2023-05-06T10:50:24.338Z,42.31
2023-05-06T10:52:55.421Z,41.98
2023-05-06T10:55:30.297Z,41.99
2023-05-06T10:58:12.607Z,42.05
2023-05-06T11:00:39.380Z,42.13
2023-05-06T11:03:09.120Z,41.69
2023-05-06T11:05:51.617Z,41.73
2023-05-06T11:08:26.416Z,41.79
2023-05-06T11:10:54.277Z,41.73
2023-05-06T11:13:24.890Z,41.88
2023-05-06T11:15:52.438Z,41.99
2023-05-06T11:18:25.197Z,41.97
2023-05-06T11:21:05.080Z,41.81
2023-05-06T11:23:49.305Z,41.89
2023-05-06T11:26:16.740Z,41.71
2023-05-06T11:28:45.251Z,41.52
2023-05-06T11:31:13.151Z,41.62
2023-05-06T11:33:46.976Z,41.56
2023-05-06T11:36:18.296Z,41.74
2023-05-06T11:38:52.911Z,41.53
2023-05-06T11:41:22.131Z,41.59
2023-05-06T11:43:51.068Z,41.55
2023-05-06T11:46:22.933Z,41.49
2023-05-06T11:48:50.818Z,41.47
2023-05-06T11:51:24.055Z,41.65
2023-05-06T11:53:51.979Z,41.49
2023-05-06T11:56:18.562Z,41.43
2023-05-06T11:58:46.569Z,41.40
2023-05-06T12:01:13.093Z,41.58
2023-05-06T12:03:39.752Z,41.41
2023-05-06T12:06:06.749Z,41.42
2023-05-06T12:08:35.912Z,41.41
2023-05-06T12:11:05.550Z,41.51
2023-05-06T12:13:34.931Z,41.48
2023-05-06T12:16:02.380Z,41.36
2023-05-06T12:18:29.873Z,41.53
2023-05-06T12:20:57.403Z,41.57
2023-05-06T12:23:26.517Z,41.57
2023-05-06T12:26:02.708Z,41.64
2023-05-06T12:28:31.445Z,41.61
2023-05-06T12:30:58.068Z,41.67
2023-05-06T12:33:24.981Z,41.55
2023-05-06T12:35:52.744Z,41.64
2023-05-06T12:38:19.348Z,41.80
2023-05-06T12:40:54.179Z,41.85
2023-05-06T12:43:30.453Z,41.70
2023-05-06T12:46:07.747Z,41.71
2023-05-06T12:48:34.680Z,41.65
2023-05-06T12:51:16.842Z,41.85
2023-05-06T12:53:43.420Z,41.77
2023-05-06T12:56:10.008Z,41.77
2023-05-06T12:58:38.104Z,41.94
2023-05-06T13:01:06.481Z,42.07
2023-05-06T13:03:34.980Z,42.22
2023-05-06T13:06:03.623Z,42.21
2023-05-06T13:08:30.228Z,42.27
2023-05-06T13:10:56.929Z,42.25
2023-05-06T13:13:23.540Z,42.39
2023-05-06T13:15:52.640Z,42.55
2023-05-06T13:18:19.227Z,42.56
2023-05-06T13:20:46.099Z,42.76
2023-05-06T13:23:12.671Z,42.98
2023-05-06T13:25:51.698Z,43.05
2023-05-06T13:28:25.815Z,43.15
2023-05-06T13:30:52.452Z,43.14
2023-05-06T13:33:19.153Z,43.28
2023-05-06T13:35:45.865Z,43.31
2023-05-06T13:38:12.502Z,43.48
2023-05-06T13:40:39.211Z,43.65
2023-05-06T13:43:05.814Z,43.91
2023-05-06T13:45:33.651Z,44.02
2023-05-06T13:48:00.379Z,44.16
2023-05-06T13:50:27.066Z,44.35
2023-05-06T13:52:53.815Z,44.49
2023-05-06T13:55:20.577Z,44.76
2023-05-06T13:57:47.420Z,44.97
2023-05-06T14:00:14.658Z,45.15
2023-05-06T14:02:42.502Z,45.21
2023-05-06T14:05:09.866Z,45.41
2023-05-06T14:07:38.400Z,45.65
2023-05-06T14:10:07.090Z,45.82
2023-05-06T14:12:34.054Z,46.00
2023-05-06T14:15:00.970Z,46.09
2023-05-06T14:17:27.932Z,46.27
2023-05-06T14:19:54.720Z,46.50
2023-05-06T14:22:21.458Z,46.69
2023-05-06T14:24:48.157Z,46.82
2023-05-06T14:27:14.827Z,47.03
2023-05-06T14:29:46.150Z,47.06
2023-05-06T14:32:13.260Z,47.19
2023-05-06T14:34:39.966Z,47.36
2023-05-06T14:37:07.983Z,47.60
2023-05-06T14:39:34.627Z,47.72
2023-05-06T14:42:01.333Z,47.86
2023-05-06T14:44:28.023Z,48.01
2023-05-06T14:46:54.645Z,48.21
2023-05-06T14:49:21.375Z,48.38
2023-05-06T14:51:49.878Z,48.52
2023-05-06T14:54:17.464Z,48.68
2023-05-06T14:56:49.359Z,48.83
2023-05-06T14:59:17.850Z,48.90
2023-05-06T15:01:44.466Z,49.16
2023-05-06T15:04:11.361Z,49.29
2023-05-06T15:06:38.376Z,49.42
2023-05-06T15:09:05.187Z,49.59
2023-05-06T15:11:32.193Z,49.75
2023-05-06T15:13:58.877Z,49.81
2023-05-06T15:16:25.582Z,49.92
2023-05-06T15:18:52.421Z,49.99
2023-05-06T15:21:19.221Z,50.12
2023-05-06T15:23:47.668Z,50.27
2023-05-06T15:26:14.565Z,50.34
2023-05-06T15:28:41.249Z,50.48
2023-05-06T15:31:08.462Z,50.57
2023-05-06T15:33:35.168Z,50.66
2023-05-06T15:36:01.856Z,50.69
2023-05-06T15:38:28.650Z,50.78
2023-05-06T15:40:59.445Z,50.83
2023-05-06T15:43:26.462Z,50.97
2023-05-06T15:46:00.297Z,51.16
2023-05-06T15:48:27.117Z,51.20
2023-05-06T15:50:53.835Z,51.28
2023-05-06T15:53:20.675Z,51.36
2023-05-06T15:55:54.565Z,51.47
2023-05-06T15:58:23.830Z,51.41
2023-05-06T16:00:50.693Z,51.63
2023-05-06T16:03:17.605Z,51.89
2023-05-06T16:05:44.396Z,52.01
2023-05-06T16:08:11.113Z,52.14
2023-05-06T16:10:37.893Z,52.21
2023-05-06T16:13:04.534Z,52.37
2023-05-06T16:15:31.341Z,52.42
2023-05-06T16:17:58.673Z,52.49
2023-05-06T16:20:25.812Z,52.51
2023-05-06T16:22:52.900Z,52.54
2023-05-06T16:25:19.801Z,52.67
2023-05-06T16:27:46.480Z,52.81
2023-05-06T16:30:13.438Z,52.90
2023-05-06T16:32:40.129Z,52.91
2023-05-06T16:35:07.729Z,53.06
2023-05-06T16:37:35.622Z,53.16
2023-05-06T16:40:03.240Z,53.21
2023-05-06T16:42:30.559Z,53.27
2023-05-06T16:44:57.608Z,53.34
2023-05-06T16:47:24.486Z,53.44
2023-05-06T16:49:51.185Z,53.51
2023-05-06T16:52:18.448Z,53.54
2023-05-06T16:54:45.581Z,53.66
2023-05-06T16:57:12.555Z,53.71
2023-05-06T16:59:39.168Z,53.83
2023-05-06T17:02:05.820Z,53.85
2023-05-06T17:04:32.470Z,53.94
2023-05-06T17:06:59.128Z,54.06
2023-05-06T17:09:25.783Z,54.14
2023-05-06T17:11:52.839Z,54.13
2023-05-06T17:14:20.127Z,54.42
2023-05-06T17:16:47.458Z,54.36
2023-05-06T17:19:14.742Z,54.48
2023-05-06T17:21:41.517Z,54.57
2023-05-06T17:24:08.158Z,54.64
2023-05-06T17:26:35.310Z,54.63
2023-05-06T17:29:01.974Z,54.74
2023-05-06T17:31:28.695Z,54.81
2023-05-06T17:33:56.527Z,54.91
2023-05-06T17:36:23.419Z,54.98
2023-05-06T17:39:01.265Z,55.02
2023-05-06T17:41:28.023Z,55.10
2023-05-06T17:43:54.576Z,55.04
2023-05-06T17:46:21.407Z,55.27
2023-05-06T17:48:48.936Z,55.40
2023-05-06T17:51:15.882Z,55.41
2023-05-06T17:53:42.550Z,55.52
2023-05-06T17:56:09.195Z,55.56
2023-05-06T17:58:35.981Z,55.57
2023-05-06T18:01:02.848Z,55.66
2023-05-06T18:03:29.523Z,55.79
2023-05-06T18:05:56.357Z,55.90
2023-05-06T18:08:22.996Z,55.94
2023-05-06T18:10:50.664Z,55.99
2023-05-06T18:13:17.412Z,55.94
2023-05-06T18:15:44.213Z,55.95
2023-05-06T18:18:10.954Z,56.02
2023-05-06T18:20:37.668Z,56.20
2023-05-06T18:23:04.317Z,56.26
2023-05-06T18:25:31.343Z,56.30
2023-05-06T18:27:57.978Z,56.43
2023-05-06T18:30:24.695Z,56.43
2023-05-06T18:32:53.288Z,56.47
2023-05-06T18:35:21.422Z,56.43
2023-05-06T18:37:47.978Z,56.50
2023-05-06T18:40:14.734Z,56.60
2023-05-06T18:42:41.306Z,56.72
2023-05-06T18:45:09.070Z,56.70
2023-05-06T18:47:37.589Z,56.82
2023-05-06T18:50:04.560Z,56.89
2023-05-06T18:52:31.186Z,56.92
2023-05-06T18:54:57.693Z,56.98
2023-05-06T18:57:27.917Z,57.00
2023-05-06T18:59:54.516Z,57.20
2023-05-06T19:02:21.121Z,57.37
2023-05-06T19:04:47.934Z,57.36
2023-05-06T19:07:16.312Z,57.29
2023-05-06T19:09:43.099Z,57.31
2023-05-06T19:12:09.724Z,57.29
2023-05-06T19:14:36.399Z,57.42
2023-05-06T19:17:03.765Z,57.55
2023-05-06T19:19:31.292Z,57.57
2023-05-06T19:21:59.143Z,57.46
2023-05-06T19:24:25.937Z,57.46
2023-05-06T19:26:52.578Z,57.54
2023-05-06T19:29:19.199Z,57.77
2023-05-06T19:31:45.929Z,58.14
2023-05-06T19:34:12.716Z,58.40
2023-05-06T19:36:39.285Z,58.26
2023-05-06T19:39:06.245Z,58.12
2023-05-06T19:41:33.619Z,57.91
2023-05-06T19:44:00.274Z,58.08
2023-05-06T19:46:28.047Z,57.86
2023-05-06T19:48:54.873Z,58.05
2023-05-06T19:51:21.481Z,58.23
2023-05-06T19:53:48.983Z,58.25
2023-05-06T19:56:17.167Z,58.23
2023-05-06T19:58:44.311Z,57.96
2023-05-06T20:01:10.956Z,58.21
2023-05-06T20:03:38.637Z,58.27
2023-05-06T20:06:05.441Z,58.28
2023-05-06T20:08:32.216Z,58.31
2023-05-06T20:10:58.885Z,58.09
2023-05-06T20:13:26.097Z,57.80
2023-05-06T20:15:54.124Z,58.12
2023-05-06T20:18:21.057Z,57.99
2023-05-06T20:20:48.287Z,57.73
2023-05-06T20:23:15.135Z,57.76
2023-05-06T20:25:41.788Z,57.61
2023-05-06T20:28:08.423Z,57.49
2023-05-06T20:30:35.389Z,57.57
2023-05-06T20:33:02.239Z,57.71
2023-05-06T20:35:29.071Z,57.67
2023-05-06T20:37:55.919Z,57.68
2023-05-06T20:40:22.673Z,57.80
2023-05-06T20:42:49.260Z,57.96
2023-05-06T20:45:16.012Z,57.95
2023-05-06T20:47:42.650Z,57.93
2023-05-06T20:50:16.594Z,58.23
2023-05-06T20:52:46.572Z,58.25
2023-05-06T20:55:14.789Z,58.34
2023-05-06T20:57:43.407Z,58.30
2023-05-06T21:00:11.509Z,58.38
2023-05-06T21:02:41.356Z,58.45
2023-05-06T21:05:09.486Z,58.62
2023-05-06T21:07:36.426Z,58.97
2023-05-06T21:10:05.621Z,59.06
2023-05-06T21:12:33.404Z,58.71
2023-05-06T21:15:01.162Z,58.86
2023-05-06T21:17:28.791Z,58.97
2023-05-06T21:19:55.979Z,59.10
2023-05-06T21:22:23.570Z,59.04
2023-05-06T21:24:51.305Z,59.28
2023-05-06T21:27:18.190Z,59.07
2023-05-06T21:29:45.232Z,58.83
2023-05-06T21:32:11.974Z,58.86
2023-05-06T21:34:39.116Z,59.09
2023-05-06T21:37:05.805Z,59.05
2023-05-06T21:39:32.613Z,59.19
2023-05-06T21:41:59.624Z,59.28
2023-05-06T21:44:26.498Z,59.19
2023-05-06T21:46:56.291Z,59.29
2023-05-06T21:49:23.110Z,59.16
2023-05-06T21:51:49.793Z,59.06
2023-05-06T21:54:17.501Z,59.03
2023-05-06T21:56:44.775Z,59.16
2023-05-06T21:59:11.521Z,59.19
2023-05-06T22:01:38.801Z,59.16
2023-05-06T22:04:11.577Z,59.14
2023-05-06T22:06:39.505Z,59.72
2023-05-06T22:09:09.419Z,59.76
2023-05-06T22:11:39.452Z,59.35
2023-05-06T22:14:06.798Z,59.41
2023-05-06T22:16:35.589Z,59.25
2023-05-06T22:19:03.981Z,59.16
2023-05-06T22:21:31.886Z,59.15
2023-05-06T22:23:58.700Z,59.09
2023-05-06T22:26:28.136Z,59.05
2023-05-06T22:28:57.687Z,59.40
2023-05-06T22:31:25.232Z,59.68
2023-05-06T22:33:55.590Z,59.44
2023-05-06T22:36:22.518Z,59.46
2023-05-06T22:38:49.209Z,59.53
2023-05-06T22:41:17.570Z,59.45
2023-05-06T22:43:44.153Z,59.35
2023-05-06T22:46:10.841Z,59.17
2023-05-06T22:48:37.729Z,59.28
2023-05-06T22:51:04.685Z,59.36
2023-05-06T22:53:31.305Z,59.39
2023-05-06T22:55:58.114Z,59.48
2023-05-06T22:58:24.750Z,59.52
2023-05-06T23:00:51.474Z,59.40
2023-05-06T23:03:18.308Z,59.43
2023-05-06T23:05:45.077Z,59.62
2023-05-06T23:08:11.690Z,59.56
2023-05-06T23:10:38.263Z,59.48
2023-05-06T23:13:04.920Z,59.54
2023-05-06T23:15:31.756Z,59.51
2023-05-06T23:17:58.433Z,59.58
2023-05-06T23:20:25.125Z,59.76
2023-05-06T23:22:51.721Z,59.66
2023-05-06T23:25:18.552Z,59.54
2023-05-06T23:27:45.187Z,59.68
2023-05-06T23:30:12.413Z,59.65
2023-05-06T23:32:39.037Z,59.60
2023-05-06T23:35:07.669Z,59.63
2023-05-06T23:37:34.655Z,59.68
2023-05-06T23:40:01.407Z,59.85
2023-05-06T23:42:28.103Z,59.84
2023-05-06T23:44:54.763Z,59.86
2023-05-06T23:47:21.460Z,59.98
2023-05-06T23:49:48.125Z,59.89
2023-05-06T23:52:14.619Z,60.13
2023-05-06T23:54:41.242Z,60.04
2023-05-06T23:57:07.803Z,60.00
2023-05-06T23:59:35.079Z,59.81
